sensor_id;sensor_type;location;lat;lon;timestamp;temperature;humidity
43607;DHT22;29197;44.788;10.366;2024-02-26T04:09:55;10.10;99.90
43607;DHT22;29197;44.788;10.366;2024-02-26T04:12:44;10.00;99.90
43607;DHT22;29197;44.788;10.366;2024-02-26T04:18:22;9.80;99.90
43607;DHT22;29197;44.788;10.366;2024-02-26T04:21:12;9.60;99.90
43607;DHT22;29197;44.788;10.366;2024-02-26T04:24:01;9.80;99.90
43607;DHT22;29197;44.788;10.366;2024-02-26T04:26:49;9.80;99.90
43607;DHT22;29197;44.788;10.366;2024-02-26T04:29:38;9.80;99.90
43607;DHT22;29197;44.788;10.366;2024-02-26T04:32:27;9.80;99.90
43607;DHT22;29197;44.788;10.366;2024-02-26T04:35:16;9.80;99.90
43607;DHT22;29197;44.788;10.366;2024-02-26T04:38:06;9.90;99.90
43607;DHT22;29197;44.788;10.366;2024-02-26T04:40:55;10.10;99.90
43607;DHT22;29197;44.788;10.366;2024-02-26T04:43:44;10.10;99.90
43607;DHT22;29197;44.788;10.366;2024-02-26T09:57:36;10.80;99.90
43607;DHT22;29197;44.788;10.366;2024-02-26T10:00:28;10.80;99.90
43607;DHT22;29197;44.788;10.366;2024-02-26T10:03:22;10.80;99.90
43607;DHT22;29197;44.788;10.366;2024-02-26T10:06:14;10.70;99.90
43607;DHT22;29197;44.788;10.366;2024-02-26T10:09:03;10.80;99.90
43607;DHT22;29197;44.788;10.366;2024-02-26T10:11:55;10.80;99.90
43607;DHT22;29197;44.788;10.366;2024-02-26T10:14:43;10.80;99.90
43607;DHT22;29197;44.788;10.366;2024-02-26T10:17:34;10.80;99.90
43607;DHT22;29197;44.788;10.366;2024-02-26T10:20:24;10.60;99.90
43607;DHT22;29197;44.788;10.366;2024-02-26T10:23:13;10.50;99.90
43607;DHT22;29197;44.788;10.366;2024-02-26T10:26:02;10.50;99.90
43607;DHT22;29197;44.788;10.366;2024-02-26T10:28:51;10.50;99.90
43607;DHT22;29197;44.788;10.366;2024-02-26T10:31:42;10.50;99.90
43607;DHT22;29197;44.788;10.366;2024-02-26T10:34:32;10.60;99.90
43607;DHT22;29197;44.788;10.366;2024-02-26T10:37:22;10.50;99.90
43607;DHT22;29197;44.788;10.366;2024-02-26T10:40:16;10.50;99.90
43607;DHT22;29197;44.788;10.366;2024-02-26T10:43:05;10.60;99.90
43607;DHT22;29197;44.788;10.366;2024-02-26T10:45:55;10.60;99.90
43607;DHT22;29197;44.788;10.366;2024-02-26T10:48:49;10.60;99.90
43607;DHT22;29197;44.788;10.366;2024-02-26T10:51:44;10.70;99.90
43607;DHT22;29197;44.788;10.366;2024-02-26T10:54:33;10.70;99.90
43607;DHT22;29197;44.788;10.366;2024-02-26T10:57:24;10.70;99.90
43607;DHT22;29197;44.788;10.366;2024-02-26T11:00:15;10.60;99.90
43607;DHT22;29197;44.788;10.366;2024-02-26T11:03:05;10.60;99.90
43607;DHT22;29197;44.788;10.366;2024-02-26T11:05:55;10.60;99.90
43607;DHT22;29197;44.788;10.366;2024-02-26T11:08:48;10.60;99.90
43607;DHT22;29197;44.788;10.366;2024-02-26T11:11:37;10.60;99.90
43607;DHT22;29197;44.788;10.366;2024-02-26T11:14:29;10.60;99.90
43607;DHT22;29197;44.788;10.366;2024-02-26T11:17:19;10.70;99.90
43607;DHT22;29197;44.788;10.366;2024-02-26T11:20:10;10.80;99.90
43607;DHT22;29197;44.788;10.366;2024-02-26T11:23:01;10.80;99.90
43607;DHT22;29197;44.788;10.366;2024-02-26T11:25:52;10.80;99.90
43607;DHT22;29197;44.788;10.366;2024-02-26T11:28:42;10.80;99.90
43607;DHT22;29197;44.788;10.366;2024-02-26T11:31:32;10.80;99.90
43607;DHT22;29197;44.788;10.366;2024-02-26T11:34:25;10.80;99.90
43607;DHT22;29197;44.788;10.366;2024-02-26T11:37:14;10.90;99.90
43607;DHT22;29197;44.788;10.366;2024-02-26T11:40:04;10.90;99.90
43607;DHT22;29197;44.788;10.366;2024-02-26T11:42:59;10.90;99.90
43607;DHT22;29197;44.788;10.366;2024-02-26T11:45:50;10.90;99.90
43607;DHT22;29197;44.788;10.366;2024-02-26T11:48:40;10.80;99.90
43607;DHT22;29197;44.788;10.366;2024-02-26T11:51:33;10.90;99.90
43607;DHT22;29197;44.788;10.366;2024-02-26T11:54:39;11.30;99.90
43607;DHT22;29197;44.788;10.366;2024-02-26T11:57:29;11.60;99.90
43607;DHT22;29197;44.788;10.366;2024-02-26T12:00:22;12.10;99.90
43607;DHT22;29197;44.788;10.366;2024-02-26T12:03:11;12.50;99.90
43607;DHT22;29197;44.788;10.366;2024-02-26T12:06:00;12.80;99.90
43607;DHT22;29197;44.788;10.366;2024-02-26T12:08:50;12.90;99.90
43607;DHT22;29197;44.788;10.366;2024-02-26T12:11:39;13.00;99.90
43607;DHT22;29197;44.788;10.366;2024-02-26T12:14:28;13.20;99.90
43607;DHT22;29197;44.788;10.366;2024-02-26T12:17:22;13.20;99.90
43607;DHT22;29197;44.788;10.366;2024-02-26T12:20:13;13.20;99.90
43607;DHT22;29197;44.788;10.366;2024-02-26T12:23:03;13.20;99.90
43607;DHT22;29197;44.788;10.366;2024-02-26T12:25:52;13.20;99.90
43607;DHT22;29197;44.788;10.366;2024-02-26T12:28:41;13.20;99.90
43607;DHT22;29197;44.788;10.366;2024-02-26T12:31:30;13.10;99.90
43607;DHT22;29197;44.788;10.366;2024-02-26T12:34:20;13.20;99.90
43607;DHT22;29197;44.788;10.366;2024-02-26T12:37:09;13.20;99.90
43607;DHT22;29197;44.788;10.366;2024-02-26T12:39:58;13.10;99.90
43607;DHT22;29197;44.788;10.366;2024-02-26T12:42:47;13.00;99.90
43607;DHT22;29197;44.788;10.366;2024-02-26T12:45:39;12.80;99.90
43607;DHT22;29197;44.788;10.366;2024-02-26T12:48:28;12.70;99.90
43607;DHT22;29197;44.788;10.366;2024-02-26T12:51:19;12.60;99.90
43607;DHT22;29197;44.788;10.366;2024-02-26T12:54:08;12.40;99.90
43607;DHT22;29197;44.788;10.366;2024-02-26T12:56:58;12.30;99.90
43607;DHT22;29197;44.788;10.366;2024-02-26T12:59:48;12.20;99.90
43607;DHT22;29197;44.788;10.366;2024-02-26T13:02:37;12.00;99.90
43607;DHT22;29197;44.788;10.366;2024-02-26T13:05:27;12.00;99.90
43607;DHT22;29197;44.788;10.366;2024-02-26T13:08:19;11.90;99.90
43607;DHT22;29197;44.788;10.366;2024-02-26T13:11:07;12.00;99.90
43607;DHT22;29197;44.788;10.366;2024-02-26T13:16:53;11.90;99.90
43607;DHT22;29197;44.788;10.366;2024-02-26T13:19:51;11.80;99.90
43607;DHT22;29197;44.788;10.366;2024-02-26T13:22:41;11.80;99.90
43607;DHT22;29197;44.788;10.366;2024-02-26T13:25:31;11.70;99.90
43607;DHT22;29197;44.788;10.366;2024-02-26T13:28:20;11.70;99.90
43607;DHT22;29197;44.788;10.366;2024-02-26T13:31:12;11.70;99.90
43607;DHT22;29197;44.788;10.366;2024-02-26T13:34:00;11.80;99.90
43607;DHT22;29197;44.788;10.366;2024-02-26T13:36:49;11.70;99.90
43607;DHT22;29197;44.788;10.366;2024-02-26T13:39:38;11.70;99.90
43607;DHT22;29197;44.788;10.366;2024-02-26T13:42:30;11.70;99.90
43607;DHT22;29197;44.788;10.366;2024-02-26T13:45:18;11.60;99.90
43607;DHT22;29197;44.788;10.366;2024-02-26T13:48:08;11.60;99.90
43607;DHT22;29197;44.788;10.366;2024-02-26T13:51:01;11.60;99.90
43607;DHT22;29197;44.788;10.366;2024-02-26T13:53:49;11.60;99.90
43607;DHT22;29197;44.788;10.366;2024-02-26T13:56:38;11.70;99.90
43607;DHT22;29197;44.788;10.366;2024-02-26T13:59:28;11.70;99.90
43607;DHT22;29197;44.788;10.366;2024-02-26T14:02:21;11.70;99.90
43607;DHT22;29197;44.788;10.366;2024-02-26T14:05:10;11.80;99.90
43607;DHT22;29197;44.788;10.366;2024-02-26T14:07:58;11.70;99.90
43607;DHT22;29197;44.788;10.366;2024-02-26T14:10:47;11.60;99.90
43607;DHT22;29197;44.788;10.366;2024-02-26T14:13:36;11.60;99.90
43607;DHT22;29197;44.788;10.366;2024-02-26T14:16:29;11.50;99.90
43607;DHT22;29197;44.788;10.366;2024-02-26T14:19:19;11.50;99.90
43607;DHT22;29197;44.788;10.366;2024-02-26T14:22:07;11.50;99.90
43607;DHT22;29197;44.788;10.366;2024-02-26T14:24:56;11.50;99.90
43607;DHT22;29197;44.788;10.366;2024-02-26T14:27:45;11.50;99.90
43607;DHT22;29197;44.788;10.366;2024-02-26T14:30:33;11.60;99.90
43607;DHT22;29197;44.788;10.366;2024-02-26T14:33:24;11.60;99.90
43607;DHT22;29197;44.788;10.366;2024-02-26T14:36:12;11.60;99.90
43607;DHT22;29197;44.788;10.366;2024-02-26T14:39:01;11.60;99.90
43607;DHT22;29197;44.788;10.366;2024-02-26T14:41:50;11.60;99.90
43607;DHT22;29197;44.788;10.366;2024-02-26T14:44:43;11.60;99.90
43607;DHT22;29197;44.788;10.366;2024-02-26T14:47:33;11.60;99.90
43607;DHT22;29197;44.788;10.366;2024-02-26T14:50:23;11.70;99.90
43607;DHT22;29197;44.788;10.366;2024-02-26T14:53:12;11.70;99.90
43607;DHT22;29197;44.788;10.366;2024-02-26T14:56:01;11.70;99.90
43607;DHT22;29197;44.788;10.366;2024-02-26T14:58:50;11.60;99.90
43607;DHT22;29197;44.788;10.366;2024-02-26T15:01:38;11.60;99.90
43607;DHT22;29197;44.788;10.366;2024-02-26T15:04:29;11.50;99.90
43607;DHT22;29197;44.788;10.366;2024-02-26T15:07:19;11.50;99.90
43607;DHT22;29197;44.788;10.366;2024-02-26T15:10:08;11.50;99.90
43607;DHT22;29197;44.788;10.366;2024-02-26T15:12:57;11.50;99.90
43607;DHT22;29197;44.788;10.366;2024-02-26T15:15:46;11.40;99.90
43607;DHT22;29197;44.788;10.366;2024-02-26T15:18:36;11.40;99.90
43607;DHT22;29197;44.788;10.366;2024-02-26T15:21:26;11.40;99.90
43607;DHT22;29197;44.788;10.366;2024-02-26T15:24:16;11.30;99.90
43607;DHT22;29197;44.788;10.366;2024-02-26T15:27:05;11.30;99.90
43607;DHT22;29197;44.788;10.366;2024-02-26T15:29:54;11.30;99.90
43607;DHT22;29197;44.788;10.366;2024-02-26T15:32:46;11.20;99.90
43607;DHT22;29197;44.788;10.366;2024-02-26T15:35:35;11.20;99.90
43607;DHT22;29197;44.788;10.366;2024-02-26T15:38:24;11.20;99.90
43607;DHT22;29197;44.788;10.366;2024-02-26T15:41:16;11.20;99.90
43607;DHT22;29197;44.788;10.366;2024-02-26T15:44:06;11.20;99.90
43607;DHT22;29197;44.788;10.366;2024-02-26T15:46:55;11.30;99.90
43607;DHT22;29197;44.788;10.366;2024-02-26T15:49:43;11.20;99.90
43607;DHT22;29197;44.788;10.366;2024-02-26T15:52:32;11.10;99.90
43607;DHT22;29197;44.788;10.366;2024-02-26T15:55:21;11.00;99.90
43607;DHT22;29197;44.788;10.366;2024-02-26T15:58:11;10.90;99.90
43607;DHT22;29197;44.788;10.366;2024-02-26T16:00:59;10.90;99.90
43607;DHT22;29197;44.788;10.366;2024-02-26T16:04:01;11.00;99.90
43607;DHT22;29197;44.788;10.366;2024-02-26T16:06:53;11.00;99.90
43607;DHT22;29197;44.788;10.366;2024-02-26T16:09:42;10.90;99.90
43607;DHT22;29197;44.788;10.366;2024-02-26T16:12:36;10.90;99.90
43607;DHT22;29197;44.788;10.366;2024-02-26T16:15:28;10.90;99.90
43607;DHT22;29197;44.788;10.366;2024-02-26T16:18:19;10.90;99.90
43607;DHT22;29197;44.788;10.366;2024-02-26T16:21:07;10.80;99.90
43607;DHT22;29197;44.788;10.366;2024-02-26T16:23:57;10.90;99.90
43607;DHT22;29197;44.788;10.366;2024-02-26T16:26:46;10.80;99.90
43607;DHT22;29197;44.788;10.366;2024-02-26T16:29:35;10.80;99.90
43607;DHT22;29197;44.788;10.366;2024-02-26T16:32:26;10.80;99.90
43607;DHT22;29197;44.788;10.366;2024-02-26T16:35:14;10.80;99.90
43607;DHT22;29197;44.788;10.366;2024-02-26T16:38:03;10.70;99.90
43607;DHT22;29197;44.788;10.366;2024-02-26T16:40:52;10.70;99.90
43607;DHT22;29197;44.788;10.366;2024-02-26T16:43:41;10.70;99.90
43607;DHT22;29197;44.788;10.366;2024-02-26T16:46:30;10.70;99.90
43607;DHT22;29197;44.788;10.366;2024-02-26T16:49:20;10.70;99.90
43607;DHT22;29197;44.788;10.366;2024-02-26T16:52:09;10.70;99.90
43607;DHT22;29197;44.788;10.366;2024-02-26T16:54:59;10.70;99.90
43607;DHT22;29197;44.788;10.366;2024-02-26T16:57:53;10.70;99.90
43607;DHT22;29197;44.788;10.366;2024-02-26T17:00:42;10.70;99.90
43607;DHT22;29197;44.788;10.366;2024-02-26T17:03:32;10.70;99.90
43607;DHT22;29197;44.788;10.366;2024-02-26T17:06:22;10.70;99.90
43607;DHT22;29197;44.788;10.366;2024-02-26T17:09:11;10.70;99.90
43607;DHT22;29197;44.788;10.366;2024-02-26T17:12:00;10.70;99.90
43607;DHT22;29197;44.788;10.366;2024-02-26T17:14:49;10.70;99.90
43607;DHT22;29197;44.788;10.366;2024-02-26T17:17:40;10.70;99.90
43607;DHT22;29197;44.788;10.366;2024-02-26T17:20:29;10.70;99.90
43607;DHT22;29197;44.788;10.366;2024-02-26T17:23:19;10.60;99.90
43607;DHT22;29197;44.788;10.366;2024-02-26T17:26:09;10.60;99.90
43607;DHT22;29197;44.788;10.366;2024-02-26T17:29:01;10.70;99.90
43607;DHT22;29197;44.788;10.366;2024-02-26T17:31:50;10.70;99.90
43607;DHT22;29197;44.788;10.366;2024-02-26T17:34:41;10.70;99.90
43607;DHT22;29197;44.788;10.366;2024-02-26T17:37:32;10.60;99.90
43607;DHT22;29197;44.788;10.366;2024-02-26T17:40:23;10.60;99.90
43607;DHT22;29197;44.788;10.366;2024-02-26T17:43:16;10.60;99.90
43607;DHT22;29197;44.788;10.366;2024-02-26T17:46:05;10.60;99.90
43607;DHT22;29197;44.788;10.366;2024-02-26T17:48:55;10.60;99.90
43607;DHT22;29197;44.788;10.366;2024-02-26T17:51:46;10.60;99.90
43607;DHT22;29197;44.788;10.366;2024-02-26T17:54:34;10.60;99.90
43607;DHT22;29197;44.788;10.366;2024-02-26T17:57:26;10.60;99.90
43607;DHT22;29197;44.788;10.366;2024-02-26T18:00:15;10.60;99.90
43607;DHT22;29197;44.788;10.366;2024-02-26T18:03:04;10.60;99.90
43607;DHT22;29197;44.788;10.366;2024-02-26T18:05:53;10.60;99.90
43607;DHT22;29197;44.788;10.366;2024-02-26T18:08:43;10.60;99.90
43607;DHT22;29197;44.788;10.366;2024-02-26T18:11:33;10.60;99.90
43607;DHT22;29197;44.788;10.366;2024-02-26T18:14:27;10.60;99.90
43607;DHT22;29197;44.788;10.366;2024-02-26T18:17:16;10.60;99.90
43607;DHT22;29197;44.788;10.366;2024-02-26T18:20:08;10.50;99.90
43607;DHT22;29197;44.788;10.366;2024-02-26T18:22:57;10.50;99.90
43607;DHT22;29197;44.788;10.366;2024-02-26T18:25:45;10.60;99.90
43607;DHT22;29197;44.788;10.366;2024-02-26T18:28:34;10.60;99.90
43607;DHT22;29197;44.788;10.366;2024-02-26T18:31:28;10.50;99.90
43607;DHT22;29197;44.788;10.366;2024-02-26T18:34:18;10.50;99.90
43607;DHT22;29197;44.788;10.366;2024-02-26T18:37:10;10.50;99.90
43607;DHT22;29197;44.788;10.366;2024-02-26T18:40:00;10.50;99.90
43607;DHT22;29197;44.788;10.366;2024-02-26T18:42:54;10.50;99.90
43607;DHT22;29197;44.788;10.366;2024-02-26T18:45:43;10.50;99.90
43607;DHT22;29197;44.788;10.366;2024-02-26T18:48:33;10.50;99.90
43607;DHT22;29197;44.788;10.366;2024-02-26T18:51:23;10.50;99.90
43607;DHT22;29197;44.788;10.366;2024-02-26T18:54:18;10.40;99.90
43607;DHT22;29197;44.788;10.366;2024-02-26T18:57:07;10.50;99.90
43607;DHT22;29197;44.788;10.366;2024-02-26T18:59:56;10.50;99.90
43607;DHT22;29197;44.788;10.366;2024-02-26T19:02:50;10.50;99.90
43607;DHT22;29197;44.788;10.366;2024-02-26T19:05:40;10.50;99.90
43607;DHT22;29197;44.788;10.366;2024-02-26T19:08:29;10.40;99.90
43607;DHT22;29197;44.788;10.366;2024-02-26T19:11:26;10.40;99.90
43607;DHT22;29197;44.788;10.366;2024-02-26T19:14:19;10.50;99.90
43607;DHT22;29197;44.788;10.366;2024-02-26T19:17:07;10.50;99.90
43607;DHT22;29197;44.788;10.366;2024-02-26T19:19:56;10.60;99.90
43607;DHT22;29197;44.788;10.366;2024-02-26T19:22:48;10.50;99.90
43607;DHT22;29197;44.788;10.366;2024-02-26T19:25:40;10.50;99.90
43607;DHT22;29197;44.788;10.366;2024-02-26T19:28:30;10.40;99.90
43607;DHT22;29197;44.788;10.366;2024-02-26T19:31:19;10.40;99.90
43607;DHT22;29197;44.788;10.366;2024-02-26T19:34:08;10.40;99.90
43607;DHT22;29197;44.788;10.366;2024-02-26T19:36:58;10.40;99.90
43607;DHT22;29197;44.788;10.366;2024-02-26T19:39:50;10.40;99.90
43607;DHT22;29197;44.788;10.366;2024-02-26T19:42:46;10.40;99.90
43607;DHT22;29197;44.788;10.366;2024-02-26T19:45:35;10.40;99.90
43607;DHT22;29197;44.788;10.366;2024-02-26T19:48:24;10.40;99.90
43607;DHT22;29197;44.788;10.366;2024-02-26T19:51:18;10.50;99.90
43607;DHT22;29197;44.788;10.366;2024-02-26T19:54:08;10.40;99.90
43607;DHT22;29197;44.788;10.366;2024-02-26T19:56:58;10.40;99.90
43607;DHT22;29197;44.788;10.366;2024-02-26T19:59:48;10.30;99.90
43607;DHT22;29197;44.788;10.366;2024-02-26T20:02:38;10.30;99.90
43607;DHT22;29197;44.788;10.366;2024-02-26T20:05:30;10.40;99.90
43607;DHT22;29197;44.788;10.366;2024-02-26T20:08:19;10.40;99.90
43607;DHT22;29197;44.788;10.366;2024-02-26T20:11:08;10.30;99.90
43607;DHT22;29197;44.788;10.366;2024-02-26T20:13:59;10.30;99.90
43607;DHT22;29197;44.788;10.366;2024-02-26T20:16:49;10.20;99.90
43607;DHT22;29197;44.788;10.366;2024-02-26T20:19:38;10.30;99.90
43607;DHT22;29197;44.788;10.366;2024-02-26T20:22:30;10.20;99.90
43607;DHT22;29197;44.788;10.366;2024-02-26T20:25:19;10.20;99.90
43607;DHT22;29197;44.788;10.366;2024-02-26T20:28:08;10.30;99.90
43607;DHT22;29197;44.788;10.366;2024-02-26T20:30:59;10.20;99.90
43607;DHT22;29197;44.788;10.366;2024-02-26T20:33:48;10.30;99.90
43607;DHT22;29197;44.788;10.366;2024-02-26T20:36:38;10.30;99.90
43607;DHT22;29197;44.788;10.366;2024-02-26T20:39:34;10.30;99.90
43607;DHT22;29197;44.788;10.366;2024-02-26T20:42:38;10.20;99.90
43607;DHT22;29197;44.788;10.366;2024-02-26T20:45:27;10.30;99.90
43607;DHT22;29197;44.788;10.366;2024-02-26T20:48:18;10.20;99.90
43607;DHT22;29197;44.788;10.366;2024-02-26T20:51:07;10.10;99.90
43607;DHT22;29197;44.788;10.366;2024-02-26T20:53:56;10.20;99.90
43607;DHT22;29197;44.788;10.366;2024-02-26T20:56:45;10.20;99.90
43607;DHT22;29197;44.788;10.366;2024-02-26T20:59:34;10.20;99.90
43607;DHT22;29197;44.788;10.366;2024-02-26T21:02:23;10.20;99.90
43607;DHT22;29197;44.788;10.366;2024-02-26T21:05:21;10.10;99.90
43607;DHT22;29197;44.788;10.366;2024-02-26T21:08:11;10.10;99.90
43607;DHT22;29197;44.788;10.366;2024-02-26T21:11:14;10.10;99.90
43607;DHT22;29197;44.788;10.366;2024-02-26T21:14:03;10.10;99.90
43607;DHT22;29197;44.788;10.366;2024-02-26T21:16:52;10.10;99.90
43607;DHT22;29197;44.788;10.366;2024-02-26T21:19:41;10.00;99.90
43607;DHT22;29197;44.788;10.366;2024-02-26T21:22:31;10.00;99.90
43607;DHT22;29197;44.788;10.366;2024-02-26T21:25:19;10.10;99.90
43607;DHT22;29197;44.788;10.366;2024-02-26T21:28:08;10.10;99.90
43607;DHT22;29197;44.788;10.366;2024-02-26T21:30:57;10.10;99.90
43607;DHT22;29197;44.788;10.366;2024-02-26T21:33:46;10.10;99.90
43607;DHT22;29197;44.788;10.366;2024-02-26T21:36:35;10.10;99.90
43607;DHT22;29197;44.788;10.366;2024-02-26T21:39:25;10.20;99.90
43607;DHT22;29197;44.788;10.366;2024-02-26T21:42:14;10.20;99.90
43607;DHT22;29197;44.788;10.366;2024-02-26T21:45:04;10.20;99.90
43607;DHT22;29197;44.788;10.366;2024-02-26T21:47:53;10.30;99.90
43607;DHT22;29197;44.788;10.366;2024-02-26T21:50:41;10.30;99.90
43607;DHT22;29197;44.788;10.366;2024-02-26T21:53:30;10.30;99.90
43607;DHT22;29197;44.788;10.366;2024-02-26T21:56:20;10.30;99.90
43607;DHT22;29197;44.788;10.366;2024-02-26T21:59:09;10.30;99.90
43607;DHT22;29197;44.788;10.366;2024-02-26T22:01:58;10.30;99.90
43607;DHT22;29197;44.788;10.366;2024-02-26T22:04:47;10.30;99.90
43607;DHT22;29197;44.788;10.366;2024-02-26T22:07:36;10.40;99.90
43607;DHT22;29197;44.788;10.366;2024-02-26T22:10:25;10.40;99.90
43607;DHT22;29197;44.788;10.366;2024-02-26T22:13:15;10.40;99.90
43607;DHT22;29197;44.788;10.366;2024-02-26T22:16:04;10.30;99.90
43607;DHT22;29197;44.788;10.366;2024-02-26T22:18:52;10.20;99.90
43607;DHT22;29197;44.788;10.366;2024-02-26T22:21:42;10.20;99.90
43607;DHT22;29197;44.788;10.366;2024-02-26T22:24:31;10.20;99.90
43607;DHT22;29197;44.788;10.366;2024-02-26T22:27:22;10.20;99.90
43607;DHT22;29197;44.788;10.366;2024-02-26T22:30:13;10.20;99.90
43607;DHT22;29197;44.788;10.366;2024-02-26T22:33:02;10.20;99.90
43607;DHT22;29197;44.788;10.366;2024-02-26T22:35:50;10.20;99.90
43607;DHT22;29197;44.788;10.366;2024-02-26T22:38:39;10.20;99.90
43607;DHT22;29197;44.788;10.366;2024-02-26T22:41:28;10.20;99.90
43607;DHT22;29197;44.788;10.366;2024-02-26T22:44:17;10.20;99.90
43607;DHT22;29197;44.788;10.366;2024-02-26T22:47:07;10.30;99.90
43607;DHT22;29197;44.788;10.366;2024-02-26T22:49:55;10.20;99.90
43607;DHT22;29197;44.788;10.366;2024-02-26T22:52:44;10.20;99.90
43607;DHT22;29197;44.788;10.366;2024-02-26T22:55:34;10.30;99.90
43607;DHT22;29197;44.788;10.366;2024-02-26T22:58:23;10.20;99.90
43607;DHT22;29197;44.788;10.366;2024-02-26T23:01:11;10.30;99.90
43607;DHT22;29197;44.788;10.366;2024-02-26T23:04:02;10.20;99.90
43607;DHT22;29197;44.788;10.366;2024-02-26T23:06:50;10.20;99.90
43607;DHT22;29197;44.788;10.366;2024-02-26T23:09:40;10.10;99.90
43607;DHT22;29197;44.788;10.366;2024-02-26T23:12:29;10.00;99.90
43607;DHT22;29197;44.788;10.366;2024-02-26T23:15:18;10.00;99.90
43607;DHT22;29197;44.788;10.366;2024-02-26T23:18:06;10.00;99.90
43607;DHT22;29197;44.788;10.366;2024-02-26T23:20:57;10.10;99.90
43607;DHT22;29197;44.788;10.366;2024-02-26T23:23:46;10.10;99.90
43607;DHT22;29197;44.788;10.366;2024-02-26T23:26:34;10.10;99.90
43607;DHT22;29197;44.788;10.366;2024-02-26T23:29:23;10.10;99.90
43607;DHT22;29197;44.788;10.366;2024-02-26T23:32:11;10.10;99.90
43607;DHT22;29197;44.788;10.366;2024-02-26T23:35:00;10.10;99.90
43607;DHT22;29197;44.788;10.366;2024-02-26T23:37:50;10.10;99.90
43607;DHT22;29197;44.788;10.366;2024-02-26T23:40:39;10.10;99.90
43607;DHT22;29197;44.788;10.366;2024-02-26T23:43:28;10.20;99.90
43607;DHT22;29197;44.788;10.366;2024-02-26T23:46:16;10.20;99.90
43607;DHT22;29197;44.788;10.366;2024-02-26T23:49:05;10.20;99.90
43607;DHT22;29197;44.788;10.366;2024-02-26T23:51:54;10.20;99.90
43607;DHT22;29197;44.788;10.366;2024-02-26T23:54:44;10.20;99.90
43607;DHT22;29197;44.788;10.366;2024-02-26T23:57:33;10.10;99.90
